createdAt,value
2022-08-17T00:00:43.125Z,20.10
2022-08-17T00:03:13.643Z,20.10
2022-08-17T00:05:50.314Z,20.10
2022-08-17T00:08:22.363Z,20.10
2022-08-17T00:10:52.735Z,20.10
2022-08-17T00:13:27.443Z,20.00
2022-08-17T00:16:00.441Z,20.10
2022-08-17T00:19:06.484Z,20.00
2022-08-17T00:21:23.844Z,20.00
2022-08-17T00:23:54.620Z,19.90
2022-08-17T00:26:43.416Z,19.80
2022-08-17T00:29:16.457Z,19.80
2022-08-17T00:31:50.232Z,19.80
2022-08-17T00:34:18.999Z,19.80
2022-08-17T00:36:49.007Z,19.80
2022-08-17T00:39:17.386Z,19.80
2022-08-17T00:41:45.533Z,19.80
2022-08-17T00:44:13.654Z,19.80
2022-08-17T00:46:45.574Z,19.80
2022-08-17T00:49:19.327Z,19.80
2022-08-17T00:51:55.474Z,19.80
2022-08-17T00:54:30.214Z,19.70
2022-08-17T00:57:08.158Z,19.70
2022-08-17T00:59:42.262Z,19.60
2022-08-17T01:02:13.714Z,19.60
2022-08-17T01:04:45.822Z,19.50
2022-08-17T01:07:15.301Z,19.60
2022-08-17T01:09:45.116Z,19.60
2022-08-17T01:12:13.942Z,19.50
2022-08-17T01:14:42.991Z,19.60
2022-08-17T01:17:11.844Z,19.60
2022-08-17T01:19:44.095Z,19.60
2022-08-17T01:22:23.193Z,19.60
2022-08-17T01:24:59.213Z,19.60
2022-08-17T01:27:28.207Z,19.70
2022-08-17T01:30:03.047Z,19.70
2022-08-17T01:32:31.660Z,19.60
2022-08-17T01:35:01.642Z,19.60
2022-08-17T01:37:35.524Z,19.60
2022-08-17T01:40:10.389Z,19.60
2022-08-17T01:42:45.850Z,19.50
2022-08-17T01:45:24.812Z,19.50
2022-08-17T01:47:54.726Z,19.50
2022-08-17T01:50:28.480Z,19.40
2022-08-17T01:53:04.948Z,19.40
2022-08-17T01:55:41.695Z,19.30
2022-08-17T01:58:10.022Z,19.30
2022-08-17T02:01:01.016Z,19.30
2022-08-17T02:03:26.921Z,19.30
2022-08-17T02:05:55.746Z,19.30
2022-08-17T02:08:39.116Z,19.20
2022-08-17T02:11:16.887Z,19.20
2022-08-17T02:13:47.577Z,19.20
2022-08-17T02:16:23.208Z,19.20
2022-08-17T02:18:51.370Z,19.20
2022-08-17T02:21:20.066Z,19.30
2022-08-17T02:23:51.129Z,19.30
2022-08-17T02:26:25.775Z,19.30
2022-08-17T02:28:55.358Z,19.30
2022-08-17T02:31:23.519Z,19.40
2022-08-17T02:34:00.324Z,19.40
2022-08-17T02:36:33.008Z,19.50
2022-08-17T02:39:02.969Z,19.50
2022-08-17T02:41:31.466Z,19.40
2022-08-17T02:44:00.004Z,19.40
2022-08-17T02:46:29.088Z,19.40
2022-08-17T02:48:57.494Z,19.30
2022-08-17T02:51:26.180Z,19.30
2022-08-17T02:54:02.818Z,19.30
2022-08-17T02:56:44.104Z,19.30
2022-08-17T02:59:12.509Z,19.30
2022-08-17T03:01:40.889Z,19.30
2022-08-17T03:04:10.777Z,19.30
2022-08-17T03:06:38.924Z,19.30
2022-08-17T03:09:06.997Z,19.20
2022-08-17T03:11:35.379Z,19.30
2022-08-17T03:14:04.904Z,19.30
2022-08-17T03:16:33.056Z,19.30
2022-08-17T03:19:01.617Z,19.30
2022-08-17T03:21:29.715Z,19.30
2022-08-17T03:23:58.149Z,19.30
2022-08-17T03:26:29.652Z,19.40
2022-08-17T03:28:58.123Z,19.30
2022-08-17T03:31:27.574Z,19.30
2022-08-17T03:33:56.266Z,19.30
2022-08-17T03:36:24.697Z,19.30
2022-08-17T03:38:52.885Z,19.20
2022-08-17T03:41:23.116Z,19.30
2022-08-17T03:43:51.183Z,19.20
2022-08-17T03:46:36.952Z,19.20
2022-08-17T03:49:27.175Z,19.20
2022-08-17T03:52:13.670Z,19.20
2022-08-17T03:55:00.852Z,19.20
2022-08-17T03:57:29.941Z,19.30
2022-08-17T03:59:58.143Z,19.20
2022-08-17T04:02:32.120Z,19.10
2022-08-17T04:05:02.318Z,19.10
2022-08-17T04:07:32.333Z,19.10
2022-08-17T04:10:00.806Z,19.10
2022-08-17T04:12:43.169Z,19.10
2022-08-17T04:15:12.521Z,19.00
2022-08-17T04:17:40.758Z,19.10
2022-08-17T04:20:12.412Z,19.10
2022-08-17T04:22:40.614Z,19.10
2022-08-17T04:25:15.759Z,19.10
2022-08-17T04:27:43.907Z,19.20
2022-08-17T04:30:14.216Z,19.20
2022-08-17T04:33:03.813Z,19.30
2022-08-17T04:35:40.276Z,19.20
2022-08-17T04:38:12.228Z,19.30
2022-08-17T04:40:58.580Z,19.30
2022-08-17T04:43:30.910Z,19.40
2022-08-17T04:46:03.273Z,19.40
2022-08-17T04:48:37.813Z,19.50
2022-08-17T04:51:13.268Z,19.60
2022-08-17T04:53:45.225Z,19.70
2022-08-17T04:56:16.866Z,19.90
2022-08-17T04:58:49.939Z,20.10
2022-08-17T05:01:23.748Z,20.30
2022-08-17T05:03:53.777Z,20.50
2022-08-17T05:06:24.219Z,20.60
2022-08-17T05:08:52.386Z,20.70
2022-08-17T05:11:21.451Z,20.80
2022-08-17T05:13:50.688Z,21.10
2022-08-17T05:16:20.097Z,21.40
2022-08-17T05:18:49.226Z,21.50
2022-08-17T05:21:19.691Z,21.50
2022-08-17T05:23:50.304Z,21.70
2022-08-17T05:26:26.886Z,21.90
2022-08-17T05:28:59.397Z,22.00
2022-08-17T05:31:29.504Z,22.20
2022-08-17T05:33:58.200Z,22.30
2022-08-17T05:36:43.287Z,22.40
2022-08-17T05:39:15.725Z,22.50
2022-08-17T05:41:47.913Z,22.60
2022-08-17T05:44:16.486Z,22.60
2022-08-17T05:46:51.163Z,22.60
2022-08-17T05:49:29.263Z,22.70
2022-08-17T05:52:19.869Z,22.80
2022-08-17T05:55:15.073Z,22.90
2022-08-17T05:58:06.697Z,22.90
2022-08-17T06:00:50.488Z,22.90
2022-08-17T06:03:42.535Z,22.80
2022-08-17T06:06:31.805Z,22.80
2022-08-17T06:09:27.625Z,22.80
2022-08-17T06:12:14.315Z,22.70
2022-08-17T06:15:12.755Z,22.70
2022-08-17T06:17:43.172Z,22.80
2022-08-17T06:20:17.117Z,22.80
2022-08-17T06:22:56.813Z,22.80
2022-08-17T06:25:35.717Z,22.90
2022-08-17T06:28:14.072Z,22.90
2022-08-17T06:31:00.805Z,22.90
2022-08-17T06:33:37.314Z,23.00
2022-08-17T06:36:31.209Z,23.00
2022-08-17T06:39:28.819Z,23.10
2022-08-17T06:42:54.982Z,23.20
2022-08-17T06:45:13.536Z,23.40
2022-08-17T06:47:56.974Z,23.50
2022-08-17T06:50:35.921Z,23.50
2022-08-17T06:53:14.412Z,23.70
2022-08-17T06:55:51.301Z,23.70
2022-08-17T06:58:24.033Z,23.70
2022-08-17T07:01:09.121Z,23.90
2022-08-17T07:03:46.814Z,24.10
2022-08-17T07:06:19.706Z,24.10
2022-08-17T07:09:02.210Z,24.20
2022-08-17T07:11:39.830Z,24.50
2022-08-17T07:14:29.161Z,24.80
2022-08-17T07:17:03.830Z,24.90
2022-08-17T07:19:36.099Z,24.90
2022-08-17T07:22:23.507Z,24.90
2022-08-17T07:24:57.265Z,24.90
2022-08-17T07:27:30.954Z,25.10
2022-08-17T07:30:10.795Z,25.20
2022-08-17T07:32:46.223Z,25.50
2022-08-17T07:35:21.135Z,25.80
2022-08-17T07:37:54.427Z,26.10
2022-08-17T07:40:34.803Z,26.40
2022-08-17T07:43:23.619Z,26.70
2022-08-17T07:46:17.761Z,27.00
2022-08-17T07:48:51.606Z,27.10
2022-08-17T07:51:29.946Z,27.20
2022-08-17T07:54:14.141Z,27.10
2022-08-17T07:56:48.182Z,27.30
2022-08-17T07:59:23.707Z,27.40
2022-08-17T08:02:28.989Z,27.10
2022-08-17T08:05:10.083Z,27.30
2022-08-17T08:07:51.422Z,27.60
2022-08-17T08:10:32.322Z,27.80
2022-08-17T08:13:14.430Z,28.20
2022-08-17T08:15:53.755Z,28.40
2022-08-17T08:18:54.943Z,28.70
2022-08-17T08:21:31.431Z,28.80
2022-08-17T08:24:22.659Z,29.00
2022-08-17T08:27:01.519Z,29.40
2022-08-17T08:29:42.962Z,29.40
2022-08-17T08:32:21.086Z,29.40
2022-08-17T08:35:03.928Z,29.70
2022-08-17T08:37:53.155Z,29.60
2022-08-17T08:40:40.486Z,29.50
2022-08-17T08:43:28.727Z,29.60
2022-08-17T08:46:12.674Z,29.80
2022-08-17T08:49:11.957Z,29.90
2022-08-17T08:51:55.428Z,29.70
2022-08-17T08:54:39.621Z,29.90
2022-08-17T08:57:25.431Z,30.00
2022-08-17T09:00:12.563Z,30.00
2022-08-17T09:03:51.899Z,29.90
2022-08-17T09:06:39.800Z,29.90
2022-08-17T09:09:24.306Z,30.50
2022-08-17T09:12:05.390Z,30.90
2022-08-17T09:14:46.418Z,31.00
2022-08-17T09:17:20.278Z,31.30
2022-08-17T09:19:55.620Z,31.30
2022-08-17T09:22:34.775Z,31.30
2022-08-17T09:25:11.799Z,31.30
2022-08-17T09:28:00.777Z,31.40
2022-08-17T09:30:46.466Z,31.30
2022-08-17T09:33:26.070Z,31.20
2022-08-17T09:36:01.094Z,31.10
2022-08-17T09:38:41.730Z,31.30
2022-08-17T09:41:20.914Z,31.30
2022-08-17T09:43:59.952Z,31.10
2022-08-17T09:46:35.720Z,31.00
2022-08-17T09:49:15.052Z,31.10
2022-08-17T09:51:49.617Z,31.30
2022-08-17T09:54:44.466Z,31.30
2022-08-17T09:57:30.703Z,31.20
2022-08-17T10:00:23.710Z,31.30
2022-08-17T10:03:39.706Z,31.70
2022-08-17T10:06:22.138Z,32.00
2022-08-17T10:09:06.531Z,32.10
2022-08-17T10:12:01.259Z,32.00
2022-08-17T10:14:43.951Z,32.10
2022-08-17T10:17:28.811Z,32.10
2022-08-17T10:20:10.648Z,32.00
2022-08-17T10:23:05.582Z,31.90
2022-08-17T10:26:08.515Z,32.30
2022-08-17T10:28:45.232Z,31.70
2022-08-17T10:31:34.839Z,31.80
2022-08-17T10:34:41.089Z,32.10
2022-08-17T10:37:38.066Z,32.00
2022-08-17T10:40:26.626Z,32.50
2022-08-17T10:43:01.590Z,32.50
2022-08-17T10:45:38.808Z,32.40
2022-08-17T10:48:33.088Z,32.50
2022-08-17T10:51:08.684Z,32.40
2022-08-17T10:53:58.845Z,31.90
2022-08-17T10:56:51.359Z,31.80
2022-08-17T10:59:54.775Z,32.10
2022-08-17T11:02:31.545Z,32.40
2022-08-17T11:05:54.349Z,32.60
2022-08-17T11:09:07.781Z,32.60
2022-08-17T11:12:10.202Z,32.40
2022-08-17T11:15:04.811Z,31.90
2022-08-17T11:18:04.697Z,32.40
2022-08-17T11:21:35.748Z,32.60
2022-08-17T11:24:22.071Z,33.00
2022-08-17T11:27:09.141Z,33.60
2022-08-17T11:30:01.913Z,33.50
2022-08-17T11:32:47.350Z,33.10
2022-08-17T11:35:40.334Z,33.10
2022-08-17T11:38:27.233Z,33.30
2022-08-17T11:41:20.964Z,33.40
2022-08-17T11:44:19.714Z,33.10
2022-08-17T11:47:28.973Z,33.40
2022-08-17T11:50:44.453Z,33.40
2022-08-17T11:54:31.848Z,33.20
2022-08-17T11:57:02.194Z,33.40
2022-08-17T11:59:59.756Z,33.30
2022-08-17T12:02:38.792Z,33.20
2022-08-17T12:05:37.115Z,33.30
2022-08-17T12:08:17.756Z,33.20
2022-08-17T12:11:01.741Z,33.00
2022-08-17T12:13:39.895Z,32.80
2022-08-17T12:16:10.000Z,32.90
2022-08-17T12:18:41.948Z,33.00
2022-08-17T12:21:34.350Z,33.30
2022-08-17T12:24:14.546Z,33.40
2022-08-17T12:26:44.115Z,33.30
2022-08-17T12:29:35.951Z,33.10
2022-08-17T12:32:14.032Z,33.10
2022-08-17T12:34:45.324Z,32.60
2022-08-17T12:37:20.052Z,32.60
2022-08-17T12:39:59.689Z,32.80
2022-08-17T12:42:34.720Z,32.80
2022-08-17T12:45:06.612Z,32.90
2022-08-17T12:47:38.462Z,33.20
2022-08-17T12:50:29.033Z,33.80
2022-08-17T12:53:02.024Z,34.00
2022-08-17T12:55:38.756Z,33.90
2022-08-17T12:58:14.410Z,34.20
2022-08-17T13:00:56.268Z,35.00
2022-08-17T13:03:27.880Z,36.10
2022-08-17T13:05:59.854Z,37.40
2022-08-17T13:08:36.358Z,37.60
2022-08-17T13:11:09.349Z,38.40
2022-08-17T13:13:42.264Z,38.80
2022-08-17T13:16:21.882Z,38.50
2022-08-17T13:18:55.274Z,39.20
2022-08-17T13:21:30.522Z,39.00
2022-08-17T13:24:03.102Z,39.30
2022-08-17T13:26:36.484Z,39.00
2022-08-17T13:29:18.439Z,39.10
2022-08-17T13:31:52.148Z,39.30
2022-08-17T13:35:06.526Z,38.40
2022-08-17T13:37:33.458Z,37.30
2022-08-17T13:40:31.335Z,36.80
2022-08-17T13:43:02.428Z,36.30
2022-08-17T13:45:50.639Z,36.20
2022-08-17T13:48:27.502Z,35.70
2022-08-17T13:51:18.119Z,35.10
2022-08-17T13:54:05.100Z,34.60
2022-08-17T13:56:57.637Z,34.30
2022-08-17T13:59:54.395Z,34.20
2022-08-17T14:02:26.020Z,34.90
2022-08-17T14:04:58.523Z,35.30
2022-08-17T14:07:35.808Z,36.30
2022-08-17T14:10:12.995Z,37.20
2022-08-17T14:12:46.052Z,38.20
2022-08-17T14:15:17.428Z,38.20
2022-08-17T14:17:45.637Z,37.30
2022-08-17T14:20:16.636Z,36.80
2022-08-17T14:22:48.237Z,36.30
2022-08-17T14:25:22.436Z,36.50
2022-08-17T14:27:54.073Z,36.90
2022-08-17T14:30:28.979Z,36.70
2022-08-17T14:33:02.007Z,36.30
2022-08-17T14:35:31.053Z,35.90
2022-08-17T14:37:59.655Z,35.20
2022-08-17T14:40:28.090Z,35.20
2022-08-17T14:42:58.863Z,35.90
2022-08-17T14:45:32.852Z,36.60
2022-08-17T14:48:05.604Z,36.30
2022-08-17T14:50:35.810Z,35.90
2022-08-17T14:53:05.179Z,35.50
2022-08-17T14:55:33.737Z,35.70
2022-08-17T14:58:04.013Z,36.60
2022-08-17T15:00:32.592Z,37.00
2022-08-17T15:03:03.007Z,38.00
2022-08-17T15:05:37.310Z,38.30
2022-08-17T15:08:08.768Z,38.50
2022-08-17T15:10:37.619Z,39.10
2022-08-17T15:13:18.819Z,38.80
2022-08-17T15:15:47.893Z,39.00
2022-08-17T15:18:16.853Z,38.60
2022-08-17T15:20:48.593Z,38.60
2022-08-17T15:23:20.104Z,38.40
2022-08-17T15:25:51.166Z,38.10
2022-08-17T15:28:22.754Z,37.90
2022-08-17T15:30:52.097Z,37.80
2022-08-17T15:33:29.114Z,37.30
2022-08-17T15:35:59.398Z,36.80
2022-08-17T15:38:28.689Z,36.60
2022-08-17T15:40:58.379Z,36.10
2022-08-17T15:43:32.542Z,35.60
2022-08-17T15:46:04.368Z,35.20
2022-08-17T15:48:44.528Z,35.10
2022-08-17T15:51:16.231Z,34.80
2022-08-17T15:53:47.917Z,34.50
2022-08-17T15:56:17.204Z,34.20
2022-08-17T15:58:49.939Z,34.00
2022-08-17T16:02:33.657Z,33.80
2022-08-17T16:04:26.624Z,33.70
2022-08-17T16:06:59.048Z,33.50
2022-08-17T16:09:27.474Z,33.30
2022-08-17T16:11:56.443Z,33.30
2022-08-17T16:14:33.829Z,33.30
2022-08-17T16:17:04.482Z,33.20
2022-08-17T16:19:34.241Z,33.20
2022-08-17T16:22:02.849Z,33.10
2022-08-17T16:24:32.373Z,32.90
2022-08-17T16:27:01.197Z,32.80
2022-08-17T16:29:30.946Z,32.90
2022-08-17T16:31:59.268Z,32.70
2022-08-17T16:34:27.364Z,32.70
2022-08-17T16:36:56.655Z,32.70
2022-08-17T16:39:27.594Z,32.70
2022-08-17T16:41:56.777Z,32.50
2022-08-17T16:44:25.835Z,32.20
2022-08-17T16:46:57.430Z,32.00
2022-08-17T16:49:36.635Z,32.00
2022-08-17T16:52:11.194Z,31.90
2022-08-17T16:54:43.635Z,31.80
2022-08-17T16:57:12.817Z,31.80
2022-08-17T16:59:44.918Z,32.00
2022-08-17T17:02:24.556Z,31.90
2022-08-17T17:05:02.653Z,31.80
2022-08-17T17:07:53.584Z,31.60
2022-08-17T17:10:29.737Z,31.50
2022-08-17T17:13:02.342Z,31.50
2022-08-17T17:15:51.691Z,31.30
2022-08-17T17:18:36.396Z,31.20
2022-08-17T17:21:06.473Z,31.00
2022-08-17T17:23:52.924Z,31.00
2022-08-17T17:26:56.810Z,31.00
2022-08-17T17:29:47.955Z,30.80
2022-08-17T17:32:26.079Z,30.70
2022-08-17T17:35:04.933Z,30.60
2022-08-17T17:37:36.551Z,30.50
2022-08-17T17:40:14.220Z,30.40
2022-08-17T17:42:45.253Z,30.30
2022-08-17T17:45:21.858Z,30.10
2022-08-17T17:47:53.700Z,30.00
2022-08-17T17:50:33.853Z,29.80
2022-08-17T17:53:09.540Z,29.70
2022-08-17T17:55:59.483Z,29.50
2022-08-17T17:58:43.858Z,29.40
2022-08-17T18:01:33.300Z,29.30
2022-08-17T18:04:21.361Z,29.20
2022-08-17T18:07:11.159Z,29.10
2022-08-17T18:10:19.462Z,29.00
2022-08-17T18:13:04.475Z,28.90
2022-08-17T18:15:41.436Z,28.80
2022-08-17T18:18:37.864Z,28.70
2022-08-17T18:21:16.663Z,28.50
2022-08-17T18:23:54.510Z,28.50
2022-08-17T18:26:45.092Z,28.40
2022-08-17T18:29:25.604Z,28.20
2022-08-17T18:32:29.868Z,28.20
2022-08-17T18:35:03.640Z,28.00
2022-08-17T18:37:39.437Z,27.90
2022-08-17T18:40:37.514Z,27.70
2022-08-17T18:43:24.544Z,27.60
2022-08-17T18:45:56.097Z,27.50
2022-08-17T18:48:53.724Z,27.40
2022-08-17T18:51:40.525Z,27.30
2022-08-17T18:54:21.299Z,27.20
2022-08-17T18:56:57.421Z,27.10
2022-08-17T18:59:44.465Z,26.90
2022-08-17T19:02:44.198Z,26.80
2022-08-17T19:05:31.270Z,26.70
2022-08-17T19:08:25.040Z,26.50
2022-08-17T19:11:01.284Z,26.40
2022-08-17T19:13:38.303Z,26.30
2022-08-17T19:16:15.750Z,26.20
2022-08-17T19:18:53.135Z,26.10
2022-08-17T19:21:27.982Z,26.20
2022-08-17T19:24:06.497Z,26.30
2022-08-17T19:26:54.772Z,26.30
2022-08-17T19:29:38.307Z,26.10
2022-08-17T19:32:14.501Z,25.90
2022-08-17T19:34:44.837Z,25.80
2022-08-17T19:37:33.985Z,25.70
2022-08-17T19:40:41.775Z,25.60
2022-08-17T19:43:20.853Z,25.50
2022-08-17T19:46:05.925Z,25.40
2022-08-17T19:48:50.615Z,25.30
2022-08-17T19:51:30.931Z,25.20
2022-08-17T19:54:14.136Z,25.10
2022-08-17T19:56:56.596Z,25.00
2022-08-17T19:59:49.025Z,24.90
2022-08-17T20:02:34.932Z,24.90
2022-08-17T20:05:11.229Z,24.90
2022-08-17T20:07:51.334Z,24.80
2022-08-17T20:10:36.414Z,24.80
2022-08-17T20:13:11.527Z,24.70
2022-08-17T20:15:43.928Z,24.70
2022-08-17T20:18:25.251Z,24.60
2022-08-17T20:21:02.925Z,24.50
2022-08-17T20:23:46.267Z,24.50
2022-08-17T20:26:22.672Z,24.40
2022-08-17T20:29:36.830Z,24.30
2022-08-17T20:32:28.951Z,24.30
2022-08-17T20:35:23.622Z,24.30
2022-08-17T20:37:57.984Z,24.20
2022-08-17T20:40:35.162Z,24.10
2022-08-17T20:43:58.926Z,24.10
2022-08-17T20:46:52.171Z,24.00
2022-08-17T20:49:31.876Z,23.90
2022-08-17T20:52:08.775Z,23.80
2022-08-17T20:54:53.466Z,23.90
2022-08-17T20:57:48.843Z,23.80
2022-08-17T21:00:52.687Z,23.70
2022-08-17T21:03:54.158Z,23.70
2022-08-17T21:06:26.092Z,23.70
2022-08-17T21:09:19.296Z,23.70
2022-08-17T21:12:04.584Z,23.60
2022-08-17T21:15:01.467Z,23.60
2022-08-17T21:17:43.538Z,23.50
2022-08-17T21:20:32.524Z,23.50
2022-08-17T21:23:47.945Z,23.40
2022-08-17T21:26:32.186Z,23.50
2022-08-17T21:29:30.433Z,23.60
2022-08-17T21:32:24.301Z,23.60
2022-08-17T21:35:28.851Z,23.60
2022-08-17T21:38:04.942Z,23.60
2022-08-17T21:40:35.298Z,23.60
2022-08-17T21:43:23.571Z,23.60
2022-08-17T21:46:06.168Z,23.50
2022-08-17T21:48:44.583Z,23.50
2022-08-17T21:51:19.077Z,23.60
2022-08-17T21:53:52.402Z,23.60
2022-08-17T21:56:27.327Z,23.70
2022-08-17T21:59:01.866Z,23.60
2022-08-17T22:01:35.276Z,23.50
2022-08-17T22:04:19.223Z,23.40
2022-08-17T22:06:55.822Z,23.40
2022-08-17T22:09:30.102Z,23.30
2022-08-17T22:12:07.482Z,23.20
2022-08-17T22:14:52.217Z,23.10
2022-08-17T22:17:25.396Z,23.00
2022-08-17T22:20:00.734Z,23.00
2022-08-17T22:22:57.777Z,22.90
2022-08-17T22:25:27.227Z,22.90
2022-08-17T22:28:00.051Z,22.80
2022-08-17T22:30:37.331Z,22.80
2022-08-17T22:33:37.109Z,22.70
2022-08-17T22:36:25.454Z,22.80
2022-08-17T22:38:56.956Z,22.80
2022-08-17T22:41:53.941Z,22.70
2022-08-17T22:44:31.589Z,22.70
2022-08-17T22:47:11.345Z,22.70
2022-08-17T22:49:53.953Z,22.60
2022-08-17T22:52:34.866Z,22.60
2022-08-17T22:55:30.673Z,22.40
2022-08-17T22:58:17.172Z,22.40
2022-08-17T23:00:48.911Z,22.40
2022-08-17T23:03:22.442Z,22.30
2022-08-17T23:06:06.715Z,22.20
2022-08-17T23:08:44.079Z,22.20
2022-08-17T23:11:12.162Z,22.20
2022-08-17T23:13:40.337Z,22.20
2022-08-17T23:16:08.520Z,22.20
2022-08-17T23:18:37.944Z,22.20
2022-08-17T23:21:07.674Z,22.20
2022-08-17T23:23:37.082Z,22.10
2022-08-17T23:26:11.239Z,22.10
2022-08-17T23:28:41.060Z,22.00
2022-08-17T23:31:09.697Z,21.90
2022-08-17T23:33:41.169Z,21.90
2022-08-17T23:36:15.293Z,21.80
2022-08-17T23:38:46.703Z,21.70
2022-08-17T23:41:19.761Z,21.60
2022-08-17T23:43:52.330Z,21.60
2022-08-17T23:46:24.506Z,21.50
2022-08-17T23:48:54.538Z,21.40
2022-08-17T23:51:29.057Z,21.40
2022-08-17T23:54:07.879Z,21.30
2022-08-17T23:56:42.011Z,21.30
2022-08-17T23:59:10.207Z,21.20
